sensor_id;sensor_type;location;lat;lon;timestamp;P1;durP1;ratioP1;P2;durP2;ratioP2
4061;SDS011;2046;47.064;15.456;2022-11-15T00:01:56;0.30;;;0.30;;
4061;SDS011;2046;47.064;15.456;2022-11-15T00:04:22;0.20;;;0.20;;
4061;SDS011;2046;47.064;15.456;2022-11-15T00:06:49;0.20;;;0.20;;
4061;SDS011;2046;47.064;15.456;2022-11-15T00:09:17;0.20;;;0.20;;
4061;SDS011;2046;47.064;15.456;2022-11-15T00:11:44;0.30;;;0.30;;
4061;SDS011;2046;47.064;15.456;2022-11-15T00:14:10;0.20;;;0.20;;
4061;SDS011;2046;47.064;15.456;2022-11-15T00:16:37;0.20;;;0.20;;
4061;SDS011;2046;47.064;15.456;2022-11-15T00:19:03;0.20;;;0.20;;
4061;SDS011;2046;47.064;15.456;2022-11-15T00:21:30;0.22;;;0.22;;
4061;SDS011;2046;47.064;15.456;2022-11-15T00:23:56;0.20;;;0.20;;
4061;SDS011;2046;47.064;15.456;2022-11-15T00:26:24;0.22;;;0.22;;
4061;SDS011;2046;47.064;15.456;2022-11-15T00:28:51;0.20;;;0.20;;
4061;SDS011;2046;47.064;15.456;2022-11-15T00:31:18;0.20;;;0.20;;
4061;SDS011;2046;47.064;15.456;2022-11-15T00:33:45;0.20;;;0.20;;
4061;SDS011;2046;47.064;15.456;2022-11-15T00:36:11;0.20;;;0.20;;
4061;SDS011;2046;47.064;15.456;2022-11-15T00:38:39;0.10;;;0.10;;
4061;SDS011;2046;47.064;15.456;2022-11-15T00:41:06;0.10;;;0.10;;
4061;SDS011;2046;47.064;15.456;2022-11-15T00:43:35;0.20;;;0.20;;
4061;SDS011;2046;47.064;15.456;2022-11-15T00:46:02;0.30;;;0.30;;
4061;SDS011;2046;47.064;15.456;2022-11-15T00:48:29;0.10;;;0.10;;
4061;SDS011;2046;47.064;15.456;2022-11-15T00:50:56;0.20;;;0.20;;
4061;SDS011;2046;47.064;15.456;2022-11-15T00:53:23;0.20;;;0.20;;
4061;SDS011;2046;47.064;15.456;2022-11-15T00:55:49;0.20;;;0.20;;
4061;SDS011;2046;47.064;15.456;2022-11-15T00:58:16;0.20;;;0.20;;
4061;SDS011;2046;47.064;15.456;2022-11-15T01:00:43;0.30;;;0.30;;
4061;SDS011;2046;47.064;15.456;2022-11-15T01:03:09;0.25;;;0.25;;
4061;SDS011;2046;47.064;15.456;2022-11-15T01:05:37;0.20;;;0.20;;
4061;SDS011;2046;47.064;15.456;2022-11-15T01:08:03;0.20;;;0.20;;
4061;SDS011;2046;47.064;15.456;2022-11-15T01:10:30;0.10;;;0.10;;
4061;SDS011;2046;47.064;15.456;2022-11-15T01:12:57;0.20;;;0.20;;
4061;SDS011;2046;47.064;15.456;2022-11-15T01:15:24;0.30;;;0.30;;
4061;SDS011;2046;47.064;15.456;2022-11-15T01:17:52;0.20;;;0.20;;
4061;SDS011;2046;47.064;15.456;2022-11-15T01:20:18;0.30;;;0.30;;
4061;SDS011;2046;47.064;15.456;2022-11-15T01:22:45;0.20;;;0.20;;
4061;SDS011;2046;47.064;15.456;2022-11-15T01:25:12;0.30;;;0.30;;
4061;SDS011;2046;47.064;15.456;2022-11-15T01:27:38;0.20;;;0.20;;
4061;SDS011;2046;47.064;15.456;2022-11-15T01:30:05;0.20;;;0.20;;
4061;SDS011;2046;47.064;15.456;2022-11-15T01:32:32;0.30;;;0.30;;
4061;SDS011;2046;47.064;15.456;2022-11-15T01:34:59;0.28;;;0.28;;
4061;SDS011;2046;47.064;15.456;2022-11-15T01:37:26;0.25;;;0.25;;
4061;SDS011;2046;47.064;15.456;2022-11-15T01:39:52;0.20;;;0.20;;
4061;SDS011;2046;47.064;15.456;2022-11-15T01:42:19;0.20;;;0.20;;
4061;SDS011;2046;47.064;15.456;2022-11-15T01:44:47;0.20;;;0.20;;
4061;SDS011;2046;47.064;15.456;2022-11-15T01:47:24;0.20;;;0.20;;
4061;SDS011;2046;47.064;15.456;2022-11-15T01:49:56;0.20;;;0.20;;
4061;SDS011;2046;47.064;15.456;2022-11-15T01:52:25;0.20;;;0.20;;
4061;SDS011;2046;47.064;15.456;2022-11-15T01:54:58;0.30;;;0.30;;
4061;SDS011;2046;47.064;15.456;2022-11-15T01:57:27;0.20;;;0.20;;
4061;SDS011;2046;47.064;15.456;2022-11-15T01:59:54;0.30;;;0.30;;
4061;SDS011;2046;47.064;15.456;2022-11-15T02:02:21;0.20;;;0.20;;
4061;SDS011;2046;47.064;15.456;2022-11-15T02:04:47;0.20;;;0.20;;
4061;SDS011;2046;47.064;15.456;2022-11-15T02:07:15;0.10;;;0.10;;
4061;SDS011;2046;47.064;15.456;2022-11-15T02:09:43;0.28;;;0.28;;
4061;SDS011;2046;47.064;15.456;2022-11-15T02:12:10;0.20;;;0.20;;
4061;SDS011;2046;47.064;15.456;2022-11-15T02:14:39;0.20;;;0.20;;
4061;SDS011;2046;47.064;15.456;2022-11-15T02:17:26;0.20;;;0.20;;
4061;SDS011;2046;47.064;15.456;2022-11-15T02:25:21;0.30;;;0.30;;
4061;SDS011;2046;47.064;15.456;2022-11-15T02:30:23;0.22;;;0.22;;
4061;SDS011;2046;47.064;15.456;2022-11-15T02:32:52;0.10;;;0.10;;
4061;SDS011;2046;47.064;15.456;2022-11-15T02:35:27;0.20;;;0.20;;
4061;SDS011;2046;47.064;15.456;2022-11-15T02:37:59;0.22;;;0.22;;
4061;SDS011;2046;47.064;15.456;2022-11-15T02:40:34;0.30;;;0.30;;
4061;SDS011;2046;47.064;15.456;2022-11-15T02:43:09;0.20;;;0.20;;
4061;SDS011;2046;47.064;15.456;2022-11-15T02:46:03;0.20;;;0.20;;
4061;SDS011;2046;47.064;15.456;2022-11-15T02:48:32;0.25;;;0.25;;
4061;SDS011;2046;47.064;15.456;2022-11-15T02:50:59;0.20;;;0.20;;
4061;SDS011;2046;47.064;15.456;2022-11-15T02:53:27;0.20;;;0.20;;
4061;SDS011;2046;47.064;15.456;2022-11-15T02:55:54;0.30;;;0.30;;
4061;SDS011;2046;47.064;15.456;2022-11-15T03:01:46;0.20;;;0.20;;
4061;SDS011;2046;47.064;15.456;2022-11-15T03:03:54;0.20;;;0.20;;
4061;SDS011;2046;47.064;15.456;2022-11-15T03:09:13;0.20;;;0.20;;
4061;SDS011;2046;47.064;15.456;2022-11-15T03:11:44;0.20;;;0.20;;
4061;SDS011;2046;47.064;15.456;2022-11-15T03:14:17;0.20;;;0.20;;
4061;SDS011;2046;47.064;15.456;2022-11-15T03:16:58;0.20;;;0.20;;
4061;SDS011;2046;47.064;15.456;2022-11-15T03:19:28;0.13;;;0.13;;
4061;SDS011;2046;47.064;15.456;2022-11-15T03:21:57;0.20;;;0.20;;
4061;SDS011;2046;47.064;15.456;2022-11-15T03:24:25;0.20;;;0.20;;
4061;SDS011;2046;47.064;15.456;2022-11-15T03:26:53;0.30;;;0.30;;
4061;SDS011;2046;47.064;15.456;2022-11-15T03:29:22;0.20;;;0.20;;
4061;SDS011;2046;47.064;15.456;2022-11-15T03:31:58;0.30;;;0.30;;
4061;SDS011;2046;47.064;15.456;2022-11-15T03:36:53;0.22;;;0.22;;
4061;SDS011;2046;47.064;15.456;2022-11-15T03:39:19;0.22;;;0.22;;
4061;SDS011;2046;47.064;15.456;2022-11-15T03:41:47;0.20;;;0.20;;
4061;SDS011;2046;47.064;15.456;2022-11-15T03:44:17;0.20;;;0.20;;
4061;SDS011;2046;47.064;15.456;2022-11-15T03:46:47;0.20;;;0.20;;
4061;SDS011;2046;47.064;15.456;2022-11-15T03:49:22;0.30;;;0.30;;
4061;SDS011;2046;47.064;15.456;2022-11-15T03:51:50;0.20;;;0.20;;
4061;SDS011;2046;47.064;15.456;2022-11-15T03:54:17;0.20;;;0.20;;
4061;SDS011;2046;47.064;15.456;2022-11-15T03:56:43;0.30;;;0.30;;
4061;SDS011;2046;47.064;15.456;2022-11-15T03:59:10;0.20;;;0.20;;
4061;SDS011;2046;47.064;15.456;2022-11-15T04:01:36;0.30;;;0.30;;
4061;SDS011;2046;47.064;15.456;2022-11-15T04:04:03;0.20;;;0.20;;
4061;SDS011;2046;47.064;15.456;2022-11-15T04:06:30;0.20;;;0.20;;
4061;SDS011;2046;47.064;15.456;2022-11-15T04:08:56;0.20;;;0.20;;
4061;SDS011;2046;47.064;15.456;2022-11-15T04:11:23;0.20;;;0.20;;
4061;SDS011;2046;47.064;15.456;2022-11-15T04:13:49;0.30;;;0.30;;
4061;SDS011;2046;47.064;15.456;2022-11-15T04:16:16;0.22;;;0.22;;
4061;SDS011;2046;47.064;15.456;2022-11-15T04:18:42;0.20;;;0.20;;
4061;SDS011;2046;47.064;15.456;2022-11-15T04:21:09;0.30;;;0.30;;
4061;SDS011;2046;47.064;15.456;2022-11-15T04:23:53;0.20;;;0.20;;
4061;SDS011;2046;47.064;15.456;2022-11-15T04:26:38;0.30;;;0.30;;
4061;SDS011;2046;47.064;15.456;2022-11-15T04:29:05;0.30;;;0.30;;
4061;SDS011;2046;47.064;15.456;2022-11-15T04:31:50;0.20;;;0.20;;
4061;SDS011;2046;47.064;15.456;2022-11-15T04:34:17;0.20;;;0.20;;
4061;SDS011;2046;47.064;15.456;2022-11-15T04:36:43;0.20;;;0.20;;
4061;SDS011;2046;47.064;15.456;2022-11-15T04:39:28;0.20;;;0.20;;
4061;SDS011;2046;47.064;15.456;2022-11-15T04:41:55;0.20;;;0.20;;
4061;SDS011;2046;47.064;15.456;2022-11-15T04:44:21;0.20;;;0.20;;
4061;SDS011;2046;47.064;15.456;2022-11-15T04:46:48;0.20;;;0.20;;
4061;SDS011;2046;47.064;15.456;2022-11-15T04:49:15;0.28;;;0.28;;
4061;SDS011;2046;47.064;15.456;2022-11-15T04:51:41;0.28;;;0.28;;
4061;SDS011;2046;47.064;15.456;2022-11-15T04:54:08;0.20;;;0.20;;
4061;SDS011;2046;47.064;15.456;2022-11-15T04:56:34;0.30;;;0.30;;
4061;SDS011;2046;47.064;15.456;2022-11-15T04:59:01;0.15;;;0.15;;
4061;SDS011;2046;47.064;15.456;2022-11-15T05:01:27;0.20;;;0.20;;
4061;SDS011;2046;47.064;15.456;2022-11-15T05:03:54;0.20;;;0.20;;
4061;SDS011;2046;47.064;15.456;2022-11-15T05:06:39;0.30;;;0.30;;
4061;SDS011;2046;47.064;15.456;2022-11-15T05:09:06;0.20;;;0.20;;
4061;SDS011;2046;47.064;15.456;2022-11-15T05:11:32;0.20;;;0.20;;
4061;SDS011;2046;47.064;15.456;2022-11-15T05:13:59;0.20;;;0.20;;
4061;SDS011;2046;47.064;15.456;2022-11-15T05:16:25;0.10;;;0.10;;
4061;SDS011;2046;47.064;15.456;2022-11-15T05:18:53;0.20;;;0.20;;
4061;SDS011;2046;47.064;15.456;2022-11-15T05:21:20;0.20;;;0.20;;
4061;SDS011;2046;47.064;15.456;2022-11-15T05:23:46;0.20;;;0.20;;
4061;SDS011;2046;47.064;15.456;2022-11-15T05:26:14;0.20;;;0.20;;
4061;SDS011;2046;47.064;15.456;2022-11-15T05:28:41;0.20;;;0.20;;
4061;SDS011;2046;47.064;15.456;2022-11-15T05:31:08;0.20;;;0.20;;
4061;SDS011;2046;47.064;15.456;2022-11-15T05:33:35;0.20;;;0.20;;
4061;SDS011;2046;47.064;15.456;2022-11-15T05:36:04;0.20;;;0.20;;
4061;SDS011;2046;47.064;15.456;2022-11-15T05:38:31;0.20;;;0.20;;
4061;SDS011;2046;47.064;15.456;2022-11-15T05:40:58;0.20;;;0.20;;
4061;SDS011;2046;47.064;15.456;2022-11-15T05:43:25;0.20;;;0.20;;
4061;SDS011;2046;47.064;15.456;2022-11-15T05:45:52;0.20;;;0.20;;
4061;SDS011;2046;47.064;15.456;2022-11-15T05:48:19;0.20;;;0.20;;
4061;SDS011;2046;47.064;15.456;2022-11-15T05:50:46;0.20;;;0.20;;
4061;SDS011;2046;47.064;15.456;2022-11-15T05:53:15;0.30;;;0.30;;
4061;SDS011;2046;47.064;15.456;2022-11-15T05:55:42;0.20;;;0.20;;
4061;SDS011;2046;47.064;15.456;2022-11-15T05:58:09;0.20;;;0.20;;
4061;SDS011;2046;47.064;15.456;2022-11-15T06:00:35;0.20;;;0.20;;
4061;SDS011;2046;47.064;15.456;2022-11-15T06:03:02;0.20;;;0.20;;
4061;SDS011;2046;47.064;15.456;2022-11-15T06:05:29;0.20;;;0.20;;
4061;SDS011;2046;47.064;15.456;2022-11-15T06:07:58;0.20;;;0.20;;
4061;SDS011;2046;47.064;15.456;2022-11-15T06:10:25;0.30;;;0.30;;
4061;SDS011;2046;47.064;15.456;2022-11-15T06:12:58;0.30;;;0.30;;
4061;SDS011;2046;47.064;15.456;2022-11-15T06:15:25;0.20;;;0.20;;
4061;SDS011;2046;47.064;15.456;2022-11-15T06:17:51;0.30;;;0.30;;
4061;SDS011;2046;47.064;15.456;2022-11-15T06:20:18;0.20;;;0.20;;
4061;SDS011;2046;47.064;15.456;2022-11-15T06:22:45;0.20;;;0.20;;
4061;SDS011;2046;47.064;15.456;2022-11-15T06:25:11;0.20;;;0.20;;
4061;SDS011;2046;47.064;15.456;2022-11-15T06:27:38;0.20;;;0.20;;
4061;SDS011;2046;47.064;15.456;2022-11-15T06:30:05;0.10;;;0.10;;
4061;SDS011;2046;47.064;15.456;2022-11-15T06:32:31;0.20;;;0.20;;
4061;SDS011;2046;47.064;15.456;2022-11-15T06:34:58;0.30;;;0.30;;
4061;SDS011;2046;47.064;15.456;2022-11-15T06:37:24;0.20;;;0.20;;
4061;SDS011;2046;47.064;15.456;2022-11-15T06:39:51;0.30;;;0.30;;
4061;SDS011;2046;47.064;15.456;2022-11-15T06:42:17;0.30;;;0.30;;
4061;SDS011;2046;47.064;15.456;2022-11-15T06:44:44;0.20;;;0.20;;
4061;SDS011;2046;47.064;15.456;2022-11-15T06:47:10;0.30;;;0.30;;
4061;SDS011;2046;47.064;15.456;2022-11-15T06:49:37;0.30;;;0.30;;
4061;SDS011;2046;47.064;15.456;2022-11-15T06:52:03;0.30;;;0.30;;
4061;SDS011;2046;47.064;15.456;2022-11-15T06:54:30;0.13;;;0.13;;
4061;SDS011;2046;47.064;15.456;2022-11-15T06:56:56;0.20;;;0.20;;
4061;SDS011;2046;47.064;15.456;2022-11-15T06:59:23;0.20;;;0.20;;
4061;SDS011;2046;47.064;15.456;2022-11-15T07:01:49;0.30;;;0.30;;
4061;SDS011;2046;47.064;15.456;2022-11-15T07:04:16;0.20;;;0.20;;
4061;SDS011;2046;47.064;15.456;2022-11-15T07:06:42;0.22;;;0.22;;
4061;SDS011;2046;47.064;15.456;2022-11-15T07:09:09;0.20;;;0.20;;
4061;SDS011;2046;47.064;15.456;2022-11-15T07:11:35;0.20;;;0.20;;
4061;SDS011;2046;47.064;15.456;2022-11-15T07:14:02;0.20;;;0.20;;
4061;SDS011;2046;47.064;15.456;2022-11-15T07:16:28;0.20;;;0.20;;
4061;SDS011;2046;47.064;15.456;2022-11-15T07:18:55;0.20;;;0.20;;
4061;SDS011;2046;47.064;15.456;2022-11-15T07:21:21;0.20;;;0.20;;
4061;SDS011;2046;47.064;15.456;2022-11-15T07:23:52;0.20;;;0.20;;
4061;SDS011;2046;47.064;15.456;2022-11-15T07:26:19;0.20;;;0.20;;
4061;SDS011;2046;47.064;15.456;2022-11-15T07:28:46;0.20;;;0.20;;
4061;SDS011;2046;47.064;15.456;2022-11-15T07:31:12;0.20;;;0.20;;
4061;SDS011;2046;47.064;15.456;2022-11-15T07:33:39;0.20;;;0.20;;
4061;SDS011;2046;47.064;15.456;2022-11-15T07:36:05;0.15;;;0.15;;
4061;SDS011;2046;47.064;15.456;2022-11-15T07:38:33;0.20;;;0.20;;
4061;SDS011;2046;47.064;15.456;2022-11-15T07:41:07;0.20;;;0.20;;
4061;SDS011;2046;47.064;15.456;2022-11-15T07:43:34;0.20;;;0.20;;
4061;SDS011;2046;47.064;15.456;2022-11-15T07:46:05;0.20;;;0.20;;
4061;SDS011;2046;47.064;15.456;2022-11-15T07:48:33;0.22;;;0.22;;
4061;SDS011;2046;47.064;15.456;2022-11-15T07:51:10;0.20;;;0.20;;
4061;SDS011;2046;47.064;15.456;2022-11-15T07:53:39;0.20;;;0.20;;
4061;SDS011;2046;47.064;15.456;2022-11-15T07:56:06;0.20;;;0.20;;
4061;SDS011;2046;47.064;15.456;2022-11-15T07:58:33;0.20;;;0.20;;
4061;SDS011;2046;47.064;15.456;2022-11-15T08:01:03;0.20;;;0.20;;
4061;SDS011;2046;47.064;15.456;2022-11-15T08:03:30;0.20;;;0.20;;
4061;SDS011;2046;47.064;15.456;2022-11-15T08:05:58;0.20;;;0.20;;
4061;SDS011;2046;47.064;15.456;2022-11-15T08:08:25;0.30;;;0.30;;
4061;SDS011;2046;47.064;15.456;2022-11-15T08:10:51;0.20;;;0.20;;
4061;SDS011;2046;47.064;15.456;2022-11-15T08:13:18;0.20;;;0.20;;
4061;SDS011;2046;47.064;15.456;2022-11-15T08:15:45;0.28;;;0.28;;
4061;SDS011;2046;47.064;15.456;2022-11-15T08:18:12;0.30;;;0.30;;
4061;SDS011;2046;47.064;15.456;2022-11-15T08:20:39;0.20;;;0.20;;
4061;SDS011;2046;47.064;15.456;2022-11-15T08:23:06;0.20;;;0.20;;
4061;SDS011;2046;47.064;15.456;2022-11-15T08:25:33;0.20;;;0.20;;
4061;SDS011;2046;47.064;15.456;2022-11-15T08:28:00;0.20;;;0.20;;
4061;SDS011;2046;47.064;15.456;2022-11-15T08:30:27;0.20;;;0.20;;
4061;SDS011;2046;47.064;15.456;2022-11-15T08:32:55;0.20;;;0.20;;
4061;SDS011;2046;47.064;15.456;2022-11-15T08:35:22;0.17;;;0.17;;
4061;SDS011;2046;47.064;15.456;2022-11-15T08:37:54;0.30;;;0.30;;
4061;SDS011;2046;47.064;15.456;2022-11-15T08:40:21;0.20;;;0.20;;
4061;SDS011;2046;47.064;15.456;2022-11-15T08:42:48;0.17;;;0.17;;
4061;SDS011;2046;47.064;15.456;2022-11-15T08:45:14;0.20;;;0.20;;
4061;SDS011;2046;47.064;15.456;2022-11-15T08:47:41;0.20;;;0.20;;
4061;SDS011;2046;47.064;15.456;2022-11-15T08:50:08;0.28;;;0.28;;
4061;SDS011;2046;47.064;15.456;2022-11-15T08:52:34;0.20;;;0.20;;
4061;SDS011;2046;47.064;15.456;2022-11-15T08:55:01;0.30;;;0.30;;
4061;SDS011;2046;47.064;15.456;2022-11-15T08:57:28;0.20;;;0.20;;
4061;SDS011;2046;47.064;15.456;2022-11-15T08:59:55;0.20;;;0.20;;
4061;SDS011;2046;47.064;15.456;2022-11-15T09:02:22;0.22;;;0.22;;
4061;SDS011;2046;47.064;15.456;2022-11-15T09:04:49;0.20;;;0.20;;
4061;SDS011;2046;47.064;15.456;2022-11-15T09:07:15;0.30;;;0.30;;
4061;SDS011;2046;47.064;15.456;2022-11-15T09:09:42;0.25;;;0.25;;
4061;SDS011;2046;47.064;15.456;2022-11-15T09:12:09;0.20;;;0.20;;
4061;SDS011;2046;47.064;15.456;2022-11-15T09:14:35;0.30;;;0.30;;
4061;SDS011;2046;47.064;15.456;2022-11-15T09:17:02;0.20;;;0.20;;
4061;SDS011;2046;47.064;15.456;2022-11-15T09:19:29;0.30;;;0.30;;
4061;SDS011;2046;47.064;15.456;2022-11-15T09:21:55;0.20;;;0.20;;
4061;SDS011;2046;47.064;15.456;2022-11-15T09:24:22;0.22;;;0.22;;
4061;SDS011;2046;47.064;15.456;2022-11-15T09:26:49;0.30;;;0.30;;
4061;SDS011;2046;47.064;15.456;2022-11-15T09:29:16;0.28;;;0.28;;
4061;SDS011;2046;47.064;15.456;2022-11-15T09:31:43;0.20;;;0.20;;
4061;SDS011;2046;47.064;15.456;2022-11-15T09:34:09;0.22;;;0.22;;
4061;SDS011;2046;47.064;15.456;2022-11-15T09:36:37;0.20;;;0.20;;
4061;SDS011;2046;47.064;15.456;2022-11-15T09:39:04;0.20;;;0.20;;
4061;SDS011;2046;47.064;15.456;2022-11-15T09:41:37;0.30;;;0.30;;
4061;SDS011;2046;47.064;15.456;2022-11-15T09:49:17;0.20;;;0.20;;
4061;SDS011;2046;47.064;15.456;2022-11-15T09:51:45;0.20;;;0.20;;
4061;SDS011;2046;47.064;15.456;2022-11-15T09:54:35;0.20;;;0.20;;
4061;SDS011;2046;47.064;15.456;2022-11-15T09:57:21;0.20;;;0.20;;
4061;SDS011;2046;47.064;15.456;2022-11-15T10:04:52;0.20;;;0.20;;
4061;SDS011;2046;47.064;15.456;2022-11-15T10:12:19;0.20;;;0.20;;
4061;SDS011;2046;47.064;15.456;2022-11-15T10:14:45;0.20;;;0.20;;
4061;SDS011;2046;47.064;15.456;2022-11-15T10:27:53;0.20;;;0.20;;
4061;SDS011;2046;47.064;15.456;2022-11-15T10:30:20;0.20;;;0.20;;
4061;SDS011;2046;47.064;15.456;2022-11-15T10:32:47;2.45;;;2.28;;
4061;SDS011;2046;47.064;15.456;2022-11-15T10:37:44;0.20;;;0.20;;
4061;SDS011;2046;47.064;15.456;2022-11-15T10:42:46;0.20;;;0.20;;
4061;SDS011;2046;47.064;15.456;2022-11-15T10:45:23;0.17;;;0.17;;
4061;SDS011;2046;47.064;15.456;2022-11-15T10:47:50;0.20;;;0.20;;
4061;SDS011;2046;47.064;15.456;2022-11-15T10:50:27;0.20;;;0.20;;
4061;SDS011;2046;47.064;15.456;2022-11-15T10:52:54;0.20;;;0.20;;
4061;SDS011;2046;47.064;15.456;2022-11-15T10:55:23;0.20;;;0.20;;
4061;SDS011;2046;47.064;15.456;2022-11-15T10:57:53;0.20;;;0.20;;
4061;SDS011;2046;47.064;15.456;2022-11-15T11:03:22;0.20;;;0.20;;
4061;SDS011;2046;47.064;15.456;2022-11-15T11:05:37;0.20;;;0.20;;
4061;SDS011;2046;47.064;15.456;2022-11-15T11:10:37;0.10;;;0.10;;
4061;SDS011;2046;47.064;15.456;2022-11-15T11:13:23;0.30;;;0.30;;
4061;SDS011;2046;47.064;15.456;2022-11-15T11:15:55;0.20;;;0.20;;
4061;SDS011;2046;47.064;15.456;2022-11-15T11:18:29;0.20;;;0.20;;
4061;SDS011;2046;47.064;15.456;2022-11-15T11:21:04;0.20;;;0.20;;
4061;SDS011;2046;47.064;15.456;2022-11-15T11:28:48;0.20;;;0.20;;
4061;SDS011;2046;47.064;15.456;2022-11-15T11:31:26;0.20;;;0.20;;
4061;SDS011;2046;47.064;15.456;2022-11-15T11:51:45;0.20;;;0.20;;
4061;SDS011;2046;47.064;15.456;2022-11-15T11:54:19;0.28;;;0.28;;
4061;SDS011;2046;47.064;15.456;2022-11-15T11:56:46;0.20;;;0.20;;
4061;SDS011;2046;47.064;15.456;2022-11-15T12:01:52;0.22;;;0.22;;
4061;SDS011;2046;47.064;15.456;2022-11-15T12:04:28;0.20;;;0.20;;
4061;SDS011;2046;47.064;15.456;2022-11-15T12:13:08;0.20;;;0.20;;
4061;SDS011;2046;47.064;15.456;2022-11-15T12:17:35;0.20;;;0.20;;
4061;SDS011;2046;47.064;15.456;2022-11-15T12:20:04;0.20;;;0.20;;
4061;SDS011;2046;47.064;15.456;2022-11-15T12:25:03;0.20;;;0.20;;
4061;SDS011;2046;47.064;15.456;2022-11-15T12:27:33;0.20;;;0.20;;
4061;SDS011;2046;47.064;15.456;2022-11-15T12:30:03;0.30;;;0.30;;
4061;SDS011;2046;47.064;15.456;2022-11-15T12:32:34;0.25;;;0.25;;
4061;SDS011;2046;47.064;15.456;2022-11-15T12:35:02;0.10;;;0.10;;
4061;SDS011;2046;47.064;15.456;2022-11-15T12:40:04;0.22;;;0.22;;
4061;SDS011;2046;47.064;15.456;2022-11-15T12:44:57;0.20;;;0.20;;
4061;SDS011;2046;47.064;15.456;2022-11-15T12:47:25;0.20;;;0.20;;
4061;SDS011;2046;47.064;15.456;2022-11-15T12:49:52;0.10;;;0.10;;
4061;SDS011;2046;47.064;15.456;2022-11-15T12:52:19;0.20;;;0.20;;
4061;SDS011;2046;47.064;15.456;2022-11-15T12:54:53;0.20;;;0.20;;
4061;SDS011;2046;47.064;15.456;2022-11-15T12:59:53;0.20;;;0.20;;
4061;SDS011;2046;47.064;15.456;2022-11-15T13:02:37;0.20;;;0.20;;
4061;SDS011;2046;47.064;15.456;2022-11-15T13:17:40;0.20;;;0.20;;
4061;SDS011;2046;47.064;15.456;2022-11-15T13:22:38;0.30;;;0.30;;
4061;SDS011;2046;47.064;15.456;2022-11-15T13:27:47;0.20;;;0.20;;
4061;SDS011;2046;47.064;15.456;2022-11-15T13:30:16;0.20;;;0.20;;
4061;SDS011;2046;47.064;15.456;2022-11-15T13:32:45;0.10;;;0.10;;
4061;SDS011;2046;47.064;15.456;2022-11-15T13:35:18;0.22;;;0.22;;
4061;SDS011;2046;47.064;15.456;2022-11-15T13:37:45;0.20;;;0.20;;
4061;SDS011;2046;47.064;15.456;2022-11-15T13:40:34;0.20;;;0.20;;
4061;SDS011;2046;47.064;15.456;2022-11-15T13:43:15;0.20;;;0.20;;
4061;SDS011;2046;47.064;15.456;2022-11-15T13:45:43;0.20;;;0.20;;
4061;SDS011;2046;47.064;15.456;2022-11-15T13:48:10;0.20;;;0.20;;
4061;SDS011;2046;47.064;15.456;2022-11-15T13:50:36;0.20;;;0.20;;
4061;SDS011;2046;47.064;15.456;2022-11-15T13:53:04;0.20;;;0.20;;
4061;SDS011;2046;47.064;15.456;2022-11-15T13:55:31;0.30;;;0.30;;
4061;SDS011;2046;47.064;15.456;2022-11-15T13:58:02;0.20;;;0.20;;
4061;SDS011;2046;47.064;15.456;2022-11-15T14:00:39;0.20;;;0.20;;
4061;SDS011;2046;47.064;15.456;2022-11-15T14:03:50;0.10;;;0.10;;
4061;SDS011;2046;47.064;15.456;2022-11-15T14:11:35;18.45;;;11.35;;
4061;SDS011;2046;47.064;15.456;2022-11-15T14:14:11;15.82;;;11.73;;
4061;SDS011;2046;47.064;15.456;2022-11-15T14:24:31;16.58;;;10.80;;
4061;SDS011;2046;47.064;15.456;2022-11-15T14:27:15;17.20;;;11.10;;
4061;SDS011;2046;47.064;15.456;2022-11-15T14:29:41;16.77;;;10.70;;
4061;SDS011;2046;47.064;15.456;2022-11-15T14:32:18;15.63;;;10.98;;
4061;SDS011;2046;47.064;15.456;2022-11-15T14:34:45;18.23;;;11.63;;
4061;SDS011;2046;47.064;15.456;2022-11-15T14:39:44;18.65;;;11.40;;
4061;SDS011;2046;47.064;15.456;2022-11-15T14:42:11;13.93;;;8.48;;
4061;SDS011;2046;47.064;15.456;2022-11-15T14:44:38;15.57;;;10.40;;
4061;SDS011;2046;47.064;15.456;2022-11-15T14:47:10;17.33;;;11.23;;
4061;SDS011;2046;47.064;15.456;2022-11-15T14:49:37;18.02;;;12.13;;
4061;SDS011;2046;47.064;15.456;2022-11-15T14:52:23;16.65;;;10.60;;
4061;SDS011;2046;47.064;15.456;2022-11-15T14:54:57;20.48;;;11.60;;
4061;SDS011;2046;47.064;15.456;2022-11-15T14:57:25;15.85;;;10.52;;
4061;SDS011;2046;47.064;15.456;2022-11-15T14:59:52;16.88;;;10.70;;
4061;SDS011;2046;47.064;15.456;2022-11-15T15:02:22;18.13;;;11.70;;
4061;SDS011;2046;47.064;15.456;2022-11-15T15:04:49;16.55;;;10.70;;
4061;SDS011;2046;47.064;15.456;2022-11-15T15:07:16;16.58;;;11.23;;
4061;SDS011;2046;47.064;15.456;2022-11-15T15:09:43;17.08;;;10.07;;
4061;SDS011;2046;47.064;15.456;2022-11-15T15:12:13;15.88;;;9.80;;
4061;SDS011;2046;47.064;15.456;2022-11-15T15:14:40;16.17;;;10.50;;
4061;SDS011;2046;47.064;15.456;2022-11-15T15:17:06;15.23;;;10.32;;
4061;SDS011;2046;47.064;15.456;2022-11-15T15:19:33;15.77;;;10.77;;
4061;SDS011;2046;47.064;15.456;2022-11-15T15:21:59;17.08;;;9.73;;
4061;SDS011;2046;47.064;15.456;2022-11-15T15:24:26;16.83;;;10.93;;
4061;SDS011;2046;47.064;15.456;2022-11-15T15:26:53;16.75;;;11.02;;
4061;SDS011;2046;47.064;15.456;2022-11-15T15:29:20;15.25;;;10.27;;
4061;SDS011;2046;47.064;15.456;2022-11-15T15:31:46;16.33;;;10.18;;
4061;SDS011;2046;47.064;15.456;2022-11-15T15:34:13;14.73;;;10.50;;
4061;SDS011;2046;47.064;15.456;2022-11-15T15:36:42;17.95;;;11.55;;
4061;SDS011;2046;47.064;15.456;2022-11-15T15:39:09;14.40;;;10.18;;
4061;SDS011;2046;47.064;15.456;2022-11-15T15:41:36;15.82;;;10.20;;
4061;SDS011;2046;47.064;15.456;2022-11-15T15:44:03;15.75;;;10.27;;
4061;SDS011;2046;47.064;15.456;2022-11-15T15:46:29;14.93;;;9.57;;
4061;SDS011;2046;47.064;15.456;2022-11-15T15:48:56;17.58;;;10.55;;
4061;SDS011;2046;47.064;15.456;2022-11-15T15:51:22;20.13;;;10.60;;
4061;SDS011;2046;47.064;15.456;2022-11-15T15:53:49;16.05;;;10.07;;
4061;SDS011;2046;47.064;15.456;2022-11-15T15:56:17;15.68;;;10.35;;
4061;SDS011;2046;47.064;15.456;2022-11-15T15:58:44;15.38;;;9.73;;
4061;SDS011;2046;47.064;15.456;2022-11-15T16:01:11;15.50;;;10.10;;
4061;SDS011;2046;47.064;15.456;2022-11-15T16:03:38;14.82;;;10.10;;
4061;SDS011;2046;47.064;15.456;2022-11-15T16:06:04;15.90;;;10.75;;
4061;SDS011;2046;47.064;15.456;2022-11-15T16:08:31;17.55;;;10.50;;
4061;SDS011;2046;47.064;15.456;2022-11-15T16:11:18;17.23;;;10.05;;
4061;SDS011;2046;47.064;15.456;2022-11-15T16:13:48;14.98;;;9.77;;
4061;SDS011;2046;47.064;15.456;2022-11-15T16:16:15;12.18;;;7.88;;
4061;SDS011;2046;47.064;15.456;2022-11-15T16:18:41;15.65;;;10.35;;
4061;SDS011;2046;47.064;15.456;2022-11-15T16:21:08;16.42;;;10.32;;
4061;SDS011;2046;47.064;15.456;2022-11-15T16:23:34;15.18;;;9.85;;
4061;SDS011;2046;47.064;15.456;2022-11-15T16:26:01;15.43;;;9.43;;
4061;SDS011;2046;47.064;15.456;2022-11-15T16:28:30;15.90;;;10.27;;
4061;SDS011;2046;47.064;15.456;2022-11-15T16:33:27;16.45;;;10.30;;
4061;SDS011;2046;47.064;15.456;2022-11-15T16:35:54;17.52;;;10.27;;
4061;SDS011;2046;47.064;15.456;2022-11-15T16:38:20;17.38;;;11.75;;
4061;SDS011;2046;47.064;15.456;2022-11-15T16:40:47;19.50;;;12.65;;
4061;SDS011;2046;47.064;15.456;2022-11-15T16:43:13;19.13;;;12.80;;
4061;SDS011;2046;47.064;15.456;2022-11-15T16:45:40;19.88;;;12.40;;
4061;SDS011;2046;47.064;15.456;2022-11-15T16:48:07;21.70;;;12.77;;
4061;SDS011;2046;47.064;15.456;2022-11-15T16:50:41;22.73;;;12.73;;
4061;SDS011;2046;47.064;15.456;2022-11-15T16:53:08;27.35;;;13.35;;
4061;SDS011;2046;47.064;15.456;2022-11-15T16:55:34;21.35;;;13.65;;
4061;SDS011;2046;47.064;15.456;2022-11-15T16:58:01;19.02;;;13.57;;
4061;SDS011;2046;47.064;15.456;2022-11-15T17:00:27;19.80;;;13.35;;
4061;SDS011;2046;47.064;15.456;2022-11-15T17:02:54;29.75;;;16.45;;
4061;SDS011;2046;47.064;15.456;2022-11-15T17:05:22;24.48;;;15.52;;
4061;SDS011;2046;47.064;15.456;2022-11-15T17:07:49;26.25;;;14.25;;
4061;SDS011;2046;47.064;15.456;2022-11-15T17:10:17;23.58;;;12.75;;
4061;SDS011;2046;47.064;15.456;2022-11-15T17:12:44;21.13;;;13.60;;
4061;SDS011;2046;47.064;15.456;2022-11-15T17:15:11;19.52;;;12.82;;
4061;SDS011;2046;47.064;15.456;2022-11-15T17:17:38;25.67;;;12.68;;